createdAt,value
2019-02-08T00:00:46.118Z,64.60
2019-02-08T00:03:49.829Z,65.57
2019-02-08T00:06:53.487Z,61.43
2019-02-08T00:09:57.205Z,59.93
2019-02-08T00:13:00.856Z,54.33
2019-02-08T00:16:04.568Z,54.17
2019-02-08T00:19:08.293Z,53.80
2019-02-08T00:22:12.009Z,52.30
2019-02-08T00:25:23.089Z,51.10
2019-02-08T00:28:26.743Z,45.17
2019-02-08T00:31:30.444Z,45.80
2019-02-08T00:34:34.118Z,44.30
2019-02-08T00:37:37.830Z,41.93
2019-02-08T00:40:41.538Z,42.87
2019-02-08T00:43:45.234Z,43.30
2019-02-08T00:46:48.931Z,39.17
2019-02-08T00:49:52.634Z,39.03
2019-02-08T00:52:56.335Z,34.27
2019-02-08T00:56:00.015Z,36.40
2019-02-08T00:59:03.723Z,32.77
2019-02-08T01:02:08.898Z,32.47
2019-02-08T01:05:20.821Z,31.37
2019-02-08T01:08:24.467Z,30.97
2019-02-08T01:11:28.179Z,31.43
2019-02-08T01:14:31.845Z,28.10
2019-02-08T01:17:35.534Z,28.70
2019-02-08T01:20:39.262Z,28.90
2019-02-08T01:23:42.924Z,28.10
2019-02-08T01:26:46.654Z,28.90
2019-02-08T01:29:50.394Z,29.00
2019-02-08T01:32:54.099Z,29.73
2019-02-08T01:35:57.835Z,29.13
2019-02-08T01:39:01.579Z,28.07
2019-02-08T01:42:05.239Z,27.13
2019-02-08T01:45:12.240Z,27.17
2019-02-08T01:48:15.936Z,24.70
2019-02-08T01:51:19.647Z,27.73
2019-02-08T01:54:23.319Z,37.43
2019-02-08T01:57:27.074Z,37.80
2019-02-08T02:00:35.592Z,56.47
2019-02-08T02:03:39.311Z,50.70
2019-02-08T02:06:43.015Z,50.20
2019-02-08T02:09:46.719Z,45.50
2019-02-08T02:12:50.474Z,43.80
2019-02-08T02:15:54.204Z,43.27
2019-02-08T02:18:57.868Z,41.90
2019-02-08T02:22:01.568Z,40.77
2019-02-08T02:25:08.053Z,45.23
2019-02-08T02:28:11.770Z,41.43
2019-02-08T02:31:15.434Z,40.20
2019-02-08T02:34:19.189Z,38.77
2019-02-08T02:37:22.824Z,37.90
2019-02-08T02:40:26.550Z,37.47
2019-02-08T02:43:30.405Z,37.83
2019-02-08T02:46:34.115Z,40.30
2019-02-08T02:49:37.838Z,38.30
2019-02-08T02:52:41.466Z,39.43
2019-02-08T02:55:45.233Z,38.53
2019-02-08T02:58:48.884Z,39.97
2019-02-08T03:01:52.611Z,41.77
2019-02-08T03:04:56.284Z,39.47
2019-02-08T03:07:59.999Z,41.60
2019-02-08T03:11:03.668Z,38.70
2019-02-08T03:14:07.409Z,39.17
2019-02-08T03:17:11.043Z,35.87
2019-02-08T03:20:17.880Z,37.13
2019-02-08T03:23:21.540Z,38.13
2019-02-08T03:26:25.331Z,39.37
2019-02-08T03:29:29.023Z,38.87
2019-02-08T03:32:32.740Z,42.00
2019-02-08T03:35:36.456Z,46.87
2019-02-08T03:38:40.164Z,49.23
2019-02-08T03:41:43.872Z,47.87
2019-02-08T03:44:47.557Z,51.73
2019-02-08T03:47:51.268Z,45.90
2019-02-08T03:50:54.918Z,48.40
2019-02-08T03:53:58.645Z,49.43
2019-02-08T03:57:02.312Z,49.80
2019-02-08T04:00:09.171Z,50.57
2019-02-08T04:03:12.829Z,50.30
2019-02-08T04:06:16.537Z,51.43
2019-02-08T04:09:20.274Z,51.53
2019-02-08T04:12:23.908Z,51.67
2019-02-08T04:15:27.632Z,49.50
2019-02-08T04:18:31.368Z,50.63
2019-02-08T04:21:35.036Z,52.43
2019-02-08T04:24:38.725Z,53.37
2019-02-08T04:27:42.444Z,52.30
2019-02-08T04:30:46.140Z,52.63
2019-02-08T04:33:49.849Z,52.63
2019-02-08T04:36:53.517Z,51.23
2019-02-08T04:39:57.241Z,54.30
2019-02-08T04:43:00.963Z,53.20
2019-02-08T04:46:04.653Z,50.47
2019-02-08T04:49:08.364Z,57.83
2019-02-08T04:52:12.070Z,56.87
2019-02-08T04:55:15.794Z,54.67
2019-02-08T04:58:19.505Z,58.10
2019-02-08T05:01:23.213Z,60.20
2019-02-08T05:04:26.952Z,66.97
2019-02-08T05:07:30.676Z,57.53
2019-02-08T05:10:34.951Z,51.47
2019-02-08T05:13:38.667Z,53.83
2019-02-08T05:16:42.404Z,52.83
2019-02-08T05:19:46.146Z,51.87
2019-02-08T05:22:49.872Z,48.03
2019-02-08T05:25:53.615Z,53.97
2019-02-08T05:28:59.596Z,52.67
2019-02-08T05:32:03.357Z,72.87
2019-02-08T05:35:08.834Z,62.00
2019-02-08T05:38:12.536Z,72.40
2019-02-08T05:41:16.211Z,66.13
2019-02-08T05:44:20.016Z,69.60
2019-02-08T05:47:23.699Z,77.07
2019-02-08T05:50:28.615Z,72.17
2019-02-08T05:53:32.317Z,74.97
2019-02-08T05:56:35.999Z,72.53
2019-02-08T05:59:39.699Z,75.57
2019-02-08T06:02:43.408Z,73.53
2019-02-08T06:05:47.618Z,72.83
2019-02-08T06:08:51.297Z,71.30
2019-02-08T06:11:55.000Z,66.40
2019-02-08T06:14:58.719Z,65.83
2019-02-08T06:18:02.392Z,69.77
2019-02-08T06:21:10.910Z,72.27
2019-02-08T06:24:17.979Z,69.20
2019-02-08T06:27:23.252Z,67.00
2019-02-08T06:30:30.897Z,66.27
2019-02-08T06:33:34.620Z,62.90
2019-02-08T06:36:38.340Z,59.83
2019-02-08T06:39:43.121Z,56.17
2019-02-08T06:42:46.929Z,51.83
2019-02-08T06:45:50.686Z,51.67
2019-02-08T06:48:54.376Z,52.07
2019-02-08T06:51:58.099Z,51.40
2019-02-08T06:55:01.823Z,52.10
2019-02-08T06:58:20.123Z,50.90
2019-02-08T07:01:37.322Z,49.90
2019-02-08T07:04:46.856Z,52.70
2019-02-08T07:08:08.272Z,52.00
2019-02-08T07:11:22.236Z,54.33
2019-02-08T07:14:44.656Z,55.87
2019-02-08T07:17:52.645Z,56.90
2019-02-08T07:20:57.936Z,61.87
2019-02-08T07:24:06.460Z,62.33
2019-02-08T07:27:17.669Z,68.17
2019-02-08T07:30:42.092Z,68.53
2019-02-08T07:33:47.356Z,67.73
2019-02-08T07:37:08.749Z,66.33
2019-02-08T07:40:25.589Z,69.47
2019-02-08T07:43:30.861Z,68.90
2019-02-08T07:46:36.109Z,67.33
2019-02-08T07:49:44.411Z,68.43
2019-02-08T07:52:49.686Z,67.97
2019-02-08T07:55:58.800Z,64.27
2019-02-08T07:59:05.385Z,64.93
2019-02-08T08:02:12.299Z,60.37
2019-02-08T08:05:26.039Z,62.43
2019-02-08T08:08:36.905Z,58.93
2019-02-08T08:12:00.574Z,59.47
2019-02-08T08:15:07.971Z,57.17
2019-02-08T08:18:30.921Z,48.73
2019-02-08T08:21:43.790Z,41.37
2019-02-08T08:24:53.075Z,43.07
2019-02-08T08:27:58.481Z,41.23
2019-02-08T08:31:05.979Z,38.53
2019-02-08T08:34:34.010Z,40.13
2019-02-08T08:38:15.426Z,42.60
2019-02-08T08:41:50.814Z,41.87
2019-02-08T08:45:00.404Z,41.30
2019-02-08T08:48:26.663Z,39.07
2019-02-08T08:51:36.071Z,40.03
2019-02-08T08:55:19.350Z,40.10
2019-02-08T08:58:43.920Z,40.47
2019-02-08T09:01:53.557Z,41.37
2019-02-08T09:05:03.332Z,42.87
2019-02-08T09:08:38.372Z,44.17
2019-02-08T09:12:01.988Z,43.53
2019-02-08T09:15:24.988Z,41.27
2019-02-08T09:19:04.055Z,37.57
2019-02-08T09:22:16.879Z,36.57
2019-02-08T09:25:38.730Z,33.43
2019-02-08T09:28:51.495Z,37.10
2019-02-08T09:32:31.634Z,37.70
2019-02-08T09:36:06.487Z,39.23
2019-02-08T09:39:38.513Z,39.10
2019-02-08T09:43:21.227Z,39.53
2019-02-08T09:46:51.538Z,43.10
2019-02-08T09:50:26.522Z,43.60
2019-02-08T09:53:35.979Z,41.60
2019-02-08T09:57:08.604Z,42.03
2019-02-08T10:00:37.107Z,41.37
2019-02-08T10:04:15.596Z,45.27
2019-02-08T10:07:31.215Z,44.63
2019-02-08T10:11:03.842Z,43.20
2019-02-08T10:14:37.657Z,45.00
2019-02-08T10:18:14.569Z,44.47
2019-02-08T10:21:42.054Z,42.47
2019-02-08T10:24:54.673Z,43.23
2019-02-08T10:28:23.000Z,45.03
2019-02-08T10:31:52.303Z,44.83
2019-02-08T10:35:17.013Z,43.43
2019-02-08T10:38:32.444Z,44.43
2019-02-08T10:41:58.935Z,45.40
2019-02-08T10:45:17.353Z,47.27
2019-02-08T10:48:39.239Z,45.57
2019-02-08T10:51:59.854Z,47.00
2019-02-08T10:55:23.153Z,44.50
2019-02-08T10:58:46.685Z,45.83
2019-02-08T11:02:19.286Z,45.83
2019-02-08T11:05:51.655Z,44.63
2019-02-08T11:09:22.610Z,44.27
2019-02-08T11:12:51.797Z,47.57
2019-02-08T11:16:19.665Z,47.23
2019-02-08T11:19:22.279Z,44.40
2019-02-08T11:22:26.031Z,44.30
2019-02-08T11:25:32.303Z,43.67
2019-02-08T11:28:36.028Z,46.37
2019-02-08T11:31:43.616Z,44.77
2019-02-08T11:34:48.840Z,45.70
2019-02-08T11:37:52.571Z,45.03
2019-02-08T11:40:56.334Z,45.17
2019-02-08T11:44:00.045Z,45.23
2019-02-08T11:47:03.719Z,45.03
2019-02-08T11:50:13.236Z,45.30
2019-02-08T11:53:16.962Z,44.53
2019-02-08T11:56:20.634Z,43.33
2019-02-08T11:59:24.409Z,41.63
2019-02-08T12:02:31.525Z,41.57
2019-02-08T12:05:35.196Z,43.73
2019-02-08T12:08:39.660Z,43.07
2019-02-08T12:11:44.312Z,42.67
2019-02-08T12:14:49.672Z,42.03
2019-02-08T12:17:54.970Z,44.50
2019-02-08T12:20:59.147Z,47.10
2019-02-08T12:24:02.795Z,48.87
2019-02-08T12:27:06.500Z,53.23
2019-02-08T12:30:25.570Z,52.67
2019-02-08T12:33:29.231Z,49.70
2019-02-08T12:36:34.637Z,50.10
2019-02-08T12:39:38.459Z,49.47
2019-02-08T12:42:42.141Z,49.23
2019-02-08T12:45:45.862Z,47.33
2019-02-08T12:48:49.571Z,42.17
2019-02-08T12:51:53.311Z,43.77
2019-02-08T12:54:57.035Z,40.67
2019-02-08T12:58:00.691Z,40.60
2019-02-08T13:01:04.415Z,37.60
2019-02-08T13:04:08.077Z,36.83
2019-02-08T13:07:11.772Z,35.40
2019-02-08T13:10:18.313Z,34.97
2019-02-08T13:13:22.002Z,35.97
2019-02-08T13:16:25.704Z,35.17
2019-02-08T13:19:29.410Z,35.03
2019-02-08T13:22:33.081Z,33.77
2019-02-08T13:25:36.799Z,28.63
2019-02-08T13:28:40.571Z,27.43
2019-02-08T13:31:44.294Z,24.23
2019-02-08T13:34:47.971Z,26.97
2019-02-08T13:37:51.680Z,24.30
2019-02-08T13:40:55.367Z,24.67
2019-02-08T13:43:59.220Z,24.27
2019-02-08T13:47:02.874Z,25.20
2019-02-08T13:50:12.419Z,25.33
2019-02-08T13:53:16.103Z,26.50
2019-02-08T13:56:19.818Z,26.90
2019-02-08T13:59:23.545Z,25.73
2019-02-08T14:02:27.197Z,25.47
2019-02-08T14:05:30.935Z,25.93
2019-02-08T14:08:34.675Z,26.40
2019-02-08T14:11:38.323Z,26.57
2019-02-08T14:14:42.047Z,27.17
2019-02-08T14:17:45.820Z,27.27
2019-02-08T14:20:49.496Z,28.23
2019-02-08T14:23:53.233Z,27.90
2019-02-08T14:26:56.890Z,27.47
2019-02-08T14:30:00.612Z,27.80
2019-02-08T14:33:04.281Z,26.80
2019-02-08T14:36:08.006Z,27.47
2019-02-08T14:39:11.703Z,27.23
2019-02-08T14:42:15.374Z,28.10
2019-02-08T14:45:19.057Z,49.00
2019-02-08T14:48:22.752Z,32.67
2019-02-08T14:51:26.400Z,30.70
2019-02-08T14:54:30.089Z,34.40
2019-02-08T14:57:33.790Z,32.83
2019-02-08T15:00:37.451Z,32.83
2019-02-08T15:03:41.184Z,32.23
2019-02-08T15:06:44.922Z,32.30
2019-02-08T15:09:48.555Z,30.53
2019-02-08T15:12:52.291Z,32.43
2019-02-08T15:15:55.939Z,32.67
2019-02-08T15:18:59.654Z,28.60
2019-02-08T15:22:03.309Z,29.73
2019-02-08T15:25:08.326Z,29.03
2019-02-08T15:28:12.053Z,31.43
2019-02-08T15:31:15.787Z,32.57
2019-02-08T15:34:19.478Z,33.17
2019-02-08T15:37:23.193Z,32.87
2019-02-08T15:40:42.131Z,34.63
2019-02-08T15:43:45.833Z,35.47
2019-02-08T15:46:49.492Z,36.10
2019-02-08T15:49:53.286Z,38.73
2019-02-08T15:52:56.997Z,38.47
2019-02-08T15:56:09.415Z,38.97
2019-02-08T15:59:13.079Z,40.03
2019-02-08T16:02:16.808Z,40.47
2019-02-08T16:05:22.354Z,40.07
2019-02-08T16:08:26.040Z,39.77
2019-02-08T16:11:30.749Z,41.70
2019-02-08T16:14:34.455Z,42.77
2019-02-08T16:17:38.162Z,46.60
2019-02-08T16:20:41.832Z,49.77
2019-02-08T16:23:45.574Z,55.10
2019-02-08T16:26:49.330Z,50.97
2019-02-08T16:29:53.073Z,46.47
2019-02-08T16:32:56.772Z,47.63
2019-02-08T16:36:00.454Z,51.80
2019-02-08T16:39:06.834Z,48.67
2019-02-08T16:42:10.554Z,47.43
2019-02-08T16:45:17.269Z,49.17
2019-02-08T16:48:20.998Z,47.80
2019-02-08T16:51:24.670Z,49.07
2019-02-08T16:54:28.374Z,48.50
2019-02-08T16:57:32.052Z,51.80
2019-02-08T17:00:41.595Z,53.47
2019-02-08T17:03:45.310Z,52.50
2019-02-08T17:06:49.010Z,55.67
2019-02-08T17:09:52.714Z,60.77
2019-02-08T17:12:56.539Z,63.23
2019-02-08T17:16:00.180Z,62.70
2019-02-08T17:19:03.896Z,60.73
2019-02-08T17:22:07.554Z,57.53
2019-02-08T17:25:11.384Z,54.17
2019-02-08T17:28:15.138Z,50.80
2019-02-08T17:31:18.790Z,50.77
2019-02-08T17:34:22.505Z,49.10
2019-02-08T17:37:26.189Z,50.37
2019-02-08T17:40:38.054Z,48.47
2019-02-08T17:43:41.747Z,48.53
2019-02-08T17:46:45.411Z,49.70
2019-02-08T17:49:49.360Z,48.67
2019-02-08T17:52:53.031Z,46.63
2019-02-08T17:55:56.761Z,49.00
2019-02-08T17:59:00.407Z,51.73
2019-02-08T18:02:04.138Z,52.60
2019-02-08T18:05:10.564Z,54.47
2019-02-08T18:08:14.216Z,55.00
2019-02-08T18:11:18.036Z,55.10
2019-02-08T18:14:21.711Z,55.27
2019-02-08T18:17:25.415Z,53.97
2019-02-08T18:20:35.274Z,57.57
2019-02-08T18:23:38.922Z,60.17
2019-02-08T18:26:42.642Z,58.67
2019-02-08T18:29:46.285Z,63.43
2019-02-08T18:32:50.010Z,66.83
2019-02-08T18:35:53.716Z,67.83
2019-02-08T18:38:57.445Z,65.70
2019-02-08T18:42:01.184Z,75.97
2019-02-08T18:45:07.049Z,95.47
2019-02-08T18:48:10.815Z,81.60
2019-02-08T18:51:14.516Z,85.37
2019-02-08T18:54:18.214Z,86.13
2019-02-08T18:57:23.467Z,89.50
2019-02-08T19:00:29.445Z,85.53
2019-02-08T19:03:33.174Z,83.13
2019-02-08T19:06:36.898Z,84.80
2019-02-08T19:09:40.581Z,84.80
2019-02-08T19:12:44.290Z,81.87
2019-02-08T19:15:47.990Z,81.43
2019-02-08T19:18:51.693Z,78.73
2019-02-08T19:21:55.470Z,78.57
2019-02-08T19:24:59.139Z,68.57
2019-02-08T19:28:02.863Z,66.07
2019-02-08T19:31:06.558Z,66.20
2019-02-08T19:34:10.296Z,62.90
2019-02-08T19:37:13.972Z,67.47
2019-02-08T19:40:23.354Z,64.70
2019-02-08T19:43:27.431Z,70.47
2019-02-08T19:46:31.196Z,69.00
2019-02-08T19:49:34.884Z,75.43
2019-02-08T19:52:38.593Z,73.83
2019-02-08T19:55:42.273Z,67.10
2019-02-08T19:58:46.018Z,72.20
2019-02-08T20:01:49.691Z,96.87
2019-02-08T20:04:53.421Z,79.17
2019-02-08T20:07:57.116Z,68.27
2019-02-08T20:11:00.822Z,64.60
2019-02-08T20:14:04.536Z,65.47
2019-02-08T20:17:08.201Z,65.47
2019-02-08T20:20:11.976Z,71.57
2019-02-08T20:23:15.725Z,81.13
2019-02-08T20:26:19.393Z,82.40
2019-02-08T20:29:23.110Z,90.33
2019-02-08T20:32:26.809Z,82.67
2019-02-08T20:35:30.474Z,79.13
2019-02-08T20:38:34.161Z,81.20
2019-02-08T20:41:37.861Z,80.00
2019-02-08T20:44:42.899Z,82.07
2019-02-08T20:47:46.681Z,88.57
2019-02-08T20:50:50.383Z,100.80
2019-02-08T20:53:54.110Z,93.80
2019-02-08T20:56:59.052Z,115.90
2019-02-08T21:00:04.764Z,117.57
2019-02-08T21:03:11.527Z,115.90
2019-02-08T21:06:15.374Z,104.40
2019-02-08T21:09:19.093Z,94.27
2019-02-08T21:12:22.769Z,91.23
2019-02-08T21:15:26.494Z,84.00
2019-02-08T21:18:30.235Z,92.77
2019-02-08T21:21:35.436Z,76.10
2019-02-08T21:24:39.209Z,80.73
2019-02-08T21:27:42.867Z,75.50
2019-02-08T21:30:47.974Z,75.83
2019-02-08T21:33:51.649Z,78.90
2019-02-08T21:36:55.295Z,79.90
2019-02-08T21:39:58.996Z,73.40
2019-02-08T21:43:02.672Z,75.60
2019-02-08T21:46:06.322Z,84.40
2019-02-08T21:49:10.054Z,79.53
2019-02-08T21:52:13.744Z,178.83
2019-02-08T21:55:19.029Z,181.37
2019-02-08T21:58:22.721Z,168.40
2019-02-08T22:01:26.393Z,175.83
2019-02-08T22:04:30.109Z,166.07
2019-02-08T22:07:33.764Z,151.00
2019-02-08T22:10:37.475Z,143.50
2019-02-08T22:13:41.207Z,145.10
2019-02-08T22:16:44.883Z,129.70
2019-02-08T22:19:48.577Z,136.27
2019-02-08T22:22:52.222Z,146.90
2019-02-08T22:25:55.935Z,150.63
2019-02-08T22:28:59.654Z,129.80
2019-02-08T22:32:03.380Z,129.03
2019-02-08T22:35:09.899Z,131.73
2019-02-08T22:38:13.555Z,137.30
2019-02-08T22:41:17.267Z,149.53
2019-02-08T22:44:20.989Z,170.40
2019-02-08T22:47:24.636Z,163.93
2019-02-08T22:50:28.586Z,156.13
2019-02-08T22:53:32.334Z,161.87
2019-02-08T22:56:36.019Z,175.53
2019-02-08T22:59:39.709Z,156.00
2019-02-08T23:02:43.435Z,147.33
2019-02-08T23:05:47.113Z,162.37
2019-02-08T23:08:50.833Z,145.97
2019-02-08T23:11:54.496Z,144.63
2019-02-08T23:14:58.225Z,124.43
2019-02-08T23:18:01.911Z,110.83
2019-02-08T23:21:05.616Z,114.10
2019-02-08T23:24:09.312Z,126.10
2019-02-08T23:27:13.425Z,122.87
2019-02-08T23:30:20.589Z,120.73
2019-02-08T23:33:24.239Z,110.30
2019-02-08T23:36:27.965Z,105.43
2019-02-08T23:39:31.669Z,89.63
2019-02-08T23:42:35.324Z,97.17
2019-02-08T23:45:39.031Z,95.97
2019-02-08T23:48:42.680Z,117.27
2019-02-08T23:51:46.350Z,109.60
2019-02-08T23:54:50.075Z,112.37
2019-02-08T23:57:53.755Z,99.67
